Hlavní strana
METAR-TAF:

METAR-TAF

Letiště :

Abumusa, Írán

zeměpisná šířka: 25-52-33N, zeměpisná délka: 055-02-01E, výška: 7 m

Aktuální stav počasí

Zpráva byla vytvořena před 43 minutami, v 06:00 UTC
Východní vítr 4 kt
Teplota 25°C
Vlhkost vzduchu 61%
Tlak 1021 hPa
Viditelnost 10 km a více
Skoro jasno ve výšce 2500 ft

METAR: OIBA 150600Z 09004KT 9999 FEW025 25/17 Q1021

Čas: 10:13 (06:43 UTC)


TAF: chybějící

Stav a předpovědi počasí z více než 4 000 letišť (zprávy METAR a TAF).

Červené a žluté tečky na mapě představují dostupné meteorologické stanice.

Když kurzor umístíte na tečku, zobrazí se název stanice.

Pak kliknutím zobrazíte stav a předpověď počasí.

Chcete-li změnit mapu, kliknutím na zelené tlačítko se znaménkem +mapu přiblížíte, kliknutím na zelené tlačítko se znaménkem – mapu oddálíte a kliknutím na zelené šipky přejdete na sousední mapy.


METAR-TAF: